AXM2274 WMKK-WMKN
Flight info
| Callsign | AXM2274 |
|---|---|
| Flight time | 0h 33m |
| Altitude | 27000 |
| Route | PIBOS2F PIBOS R208 GUNBO GUNBO1H |
| Aircraft | A20N/M-SDE2E3FGHIRWXY/LB1 |
Departure
| Time | 2026-05-07 14:53 |
|---|---|
| Airport | Kuala Lumpur International Airport (WMKK) |
Arrival
| Time | 2026-05-07 15:26 |
|---|---|
| Airport | Sultan Mahmud Airport (WMKN) |
| Time | Latitude | Longitude | Altitude | Speed | Heading |
|---|---|---|---|---|---|
| 2026-05-07 14:01 | 2.73813 | 101.68541 | 45 ft | 0 kts | 146° |
| 2026-05-07 14:32 | 2.73817 | 101.68538 | 45 ft | 2 kts | 145° |
| 2026-05-07 14:32 | 2.73831 | 101.68529 | 45 ft | 2 kts | 146° |
| 2026-05-07 14:32 | 2.73844 | 101.68520 | 45 ft | 2 kts | 147° |
| 2026-05-07 14:32 | 2.73858 | 101.68511 | 45 ft | 2 kts | 150° |
| 2026-05-07 14:33 | 2.73873 | 101.68504 | 43 ft | 2 kts | 159° |
| 2026-05-07 14:33 | 2.73889 | 101.68502 | 42 ft | 2 kts | 213° |
| 2026-05-07 14:33 | 2.73895 | 101.68507 | 43 ft | 0 kts | 230° |
| 2026-05-07 14:33 | 2.73895 | 101.68508 | 43 ft | 0 kts | 230° |
| 2026-05-07 14:37 | 2.73887 | 101.68496 | 42 ft | 3 kts | 234° |
| 2026-05-07 14:37 | 2.73872 | 101.68475 | 43 ft | 5 kts | 235° |
| 2026-05-07 14:38 | 2.73851 | 101.68443 | 45 ft | 6 kts | 236° |
| 2026-05-07 14:38 | 2.73823 | 101.68401 | 43 ft | 8 kts | 236° |
| 2026-05-07 14:38 | 2.73788 | 101.68349 | 43 ft | 10 kts | 236° |
| 2026-05-07 14:38 | 2.73750 | 101.68293 | 43 ft | 10 kts | 236° |
| 2026-05-07 14:39 | 2.73710 | 101.68235 | 45 ft | 11 kts | 236° |
| 2026-05-07 14:39 | 2.73685 | 101.68199 | 43 ft | 0 kts | 236° |
| 2026-05-07 14:39 | 2.73683 | 101.68198 | 43 ft | 0 kts | 219° |
| 2026-05-07 14:39 | 2.73681 | 101.68198 | 43 ft | 1 kts | 197° |
| 2026-05-07 14:40 | 2.73670 | 101.68198 | 43 ft | 3 kts | 178° |
| 2026-05-07 14:40 | 2.73644 | 101.68207 | 40 ft | 4 kts | 147° |
| 2026-05-07 14:40 | 2.73613 | 101.68226 | 41 ft | 7 kts | 147° |
| 2026-05-07 14:40 | 2.73566 | 101.68257 | 43 ft | 10 kts | 146° |
| 2026-05-07 14:41 | 2.73500 | 101.68301 | 43 ft | 13 kts | 146° |
| 2026-05-07 14:41 | 2.73413 | 101.68359 | 43 ft | 17 kts | 146° |
| 2026-05-07 14:41 | 2.73328 | 101.68416 | 41 ft | 13 kts | 146° |
| 2026-05-07 14:41 | 2.73256 | 101.68466 | 43 ft | 13 kts | 145° |
| 2026-05-07 14:42 | 2.73172 | 101.68522 | 43 ft | 16 kts | 146° |
| 2026-05-07 14:42 | 2.73078 | 101.68588 | 43 ft | 18 kts | 145° |
| 2026-05-07 14:42 | 2.72995 | 101.68641 | 43 ft | 11 kts | 150° |
| 2026-05-07 14:42 | 2.72931 | 101.68680 | 43 ft | 10 kts | 146° |
| 2026-05-07 14:43 | 2.72874 | 101.68721 | 43 ft | 10 kts | 145° |
| 2026-05-07 14:43 | 2.72813 | 101.68763 | 43 ft | 11 kts | 146° |
| 2026-05-07 14:43 | 2.72748 | 101.68807 | 43 ft | 12 kts | 146° |
| 2026-05-07 14:43 | 2.72680 | 101.68853 | 43 ft | 12 kts | 146° |
| 2026-05-07 14:44 | 2.72608 | 101.68902 | 41 ft | 13 kts | 146° |
| 2026-05-07 14:44 | 2.72533 | 101.68952 | 43 ft | 13 kts | 145° |
| 2026-05-07 14:44 | 2.72456 | 101.69004 | 43 ft | 14 kts | 146° |
| 2026-05-07 14:44 | 2.72373 | 101.69060 | 43 ft | 15 kts | 146° |
| 2026-05-07 14:45 | 2.72285 | 101.69119 | 43 ft | 15 kts | 146° |
| 2026-05-07 14:45 | 2.72196 | 101.69179 | 43 ft | 16 kts | 146° |
| 2026-05-07 14:45 | 2.72104 | 101.69241 | 43 ft | 16 kts | 146° |
| 2026-05-07 14:45 | 2.72010 | 101.69305 | 43 ft | 17 kts | 146° |
| 2026-05-07 14:46 | 2.71913 | 101.69370 | 43 ft | 17 kts | 146° |
| 2026-05-07 14:46 | 2.71834 | 101.69391 | 43 ft | 6 kts | 198° |
| 2026-05-07 14:46 | 2.71810 | 101.69370 | 43 ft | 4 kts | 233° |
| 2026-05-07 14:46 | 2.71790 | 101.69342 | 42 ft | 6 kts | 235° |
| 2026-05-07 14:47 | 2.71769 | 101.69311 | 42 ft | 5 kts | 236° |
| 2026-05-07 14:47 | 2.71757 | 101.69292 | 42 ft | 0 kts | 245° |
| 2026-05-07 14:49 | 2.71757 | 101.69291 | 42 ft | 0 kts | 249° |
| 2026-05-07 14:49 | 2.71755 | 101.69283 | 42 ft | 2 kts | 256° |
| 2026-05-07 14:50 | 2.71754 | 101.69264 | 42 ft | 4 kts | 274° |
| 2026-05-07 14:50 | 2.71764 | 101.69228 | 41 ft | 7 kts | 290° |
| 2026-05-07 14:50 | 2.71791 | 101.69175 | 42 ft | 11 kts | 300° |
| 2026-05-07 14:50 | 2.71823 | 101.69105 | 41 ft | 8 kts | 297° |
| 2026-05-07 14:51 | 2.71856 | 101.69071 | 42 ft | 6 kts | 326° |
| 2026-05-07 14:51 | 2.71861 | 101.69067 | 42 ft | 0 kts | 326° |
| 2026-05-07 14:51 | 2.71888 | 101.69049 | 42 ft | 23 kts | 326° |
| 2026-05-07 14:52 | 2.72220 | 101.68826 | 40 ft | 90 kts | 326° |
| 2026-05-07 14:52 | 2.72903 | 101.68366 | 43 ft | 144 kts | 326° |
| 2026-05-07 14:52 | 2.73813 | 101.67749 | 273 ft | 162 kts | 328° |
| 2026-05-07 14:52 | 2.74776 | 101.67120 | 644 ft | 166 kts | 330° |
| 2026-05-07 14:53 | 2.75774 | 101.66456 | 891 ft | 179 kts | 327° |
| 2026-05-07 14:53 | 2.76883 | 101.65796 | 1147 ft | 192 kts | 334° |
| 2026-05-07 14:53 | 2.78142 | 101.65272 | 1538 ft | 200 kts | 343° |
| 2026-05-07 14:53 | 2.79511 | 101.64977 | 1902 ft | 199 kts | 9° |
| 2026-05-07 14:54 | 2.80820 | 101.65340 | 2488 ft | 197 kts | 12° |
| 2026-05-07 14:54 | 2.82189 | 101.65545 | 3015 ft | 201 kts | 11° |
| 2026-05-07 14:54 | 2.83572 | 101.65805 | 3597 ft | 204 kts | 12° |
| 2026-05-07 14:54 | 2.85034 | 101.66071 | 3926 ft | 222 kts | 10° |
| 2026-05-07 14:55 | 2.86619 | 101.66335 | 4225 ft | 241 kts | 9° |
| 2026-05-07 14:55 | 2.88349 | 101.66561 | 4487 ft | 260 kts | 4° |
| 2026-05-07 14:55 | 2.90167 | 101.66905 | 4870 ft | 273 kts | 26° |
| 2026-05-07 14:55 | 2.91687 | 101.68059 | 5489 ft | 276 kts | 44° |
| 2026-05-07 14:56 | 2.93051 | 101.69413 | 6224 ft | 277 kts | 45° |
| 2026-05-07 14:56 | 2.94445 | 101.70760 | 6867 ft | 280 kts | 44° |
| 2026-05-07 14:56 | 2.95890 | 101.72087 | 7524 ft | 283 kts | 42° |
| 2026-05-07 14:56 | 2.97370 | 101.73397 | 8202 ft | 285 kts | 41° |
| 2026-05-07 14:57 | 2.98873 | 101.74701 | 8887 ft | 288 kts | 41° |
| 2026-05-07 14:57 | 3.00399 | 101.76008 | 9597 ft | 290 kts | 41° |
| 2026-05-07 14:57 | 3.01933 | 101.77314 | 10157 ft | 297 kts | 41° |
| 2026-05-07 14:57 | 3.03563 | 101.78698 | 10453 ft | 313 kts | 41° |
| 2026-05-07 14:58 | 3.05260 | 101.80136 | 10770 ft | 326 kts | 41° |
| 2026-05-07 14:58 | 3.07010 | 101.81617 | 11257 ft | 332 kts | 41° |
| 2026-05-07 14:58 | 3.08781 | 101.83115 | 11843 ft | 334 kts | 41° |
| 2026-05-07 14:58 | 3.10559 | 101.84617 | 12445 ft | 336 kts | 41° |
| 2026-05-07 14:59 | 3.12352 | 101.86134 | 13041 ft | 338 kts | 41° |
| 2026-05-07 14:59 | 3.14152 | 101.87655 | 13663 ft | 340 kts | 41° |
| 2026-05-07 14:59 | 3.15962 | 101.89186 | 14211 ft | 342 kts | 42° |
| 2026-05-07 14:59 | 3.17790 | 101.90733 | 14730 ft | 345 kts | 42° |
| 2026-05-07 15:00 | 3.19604 | 101.92267 | 15240 ft | 348 kts | 42° |
| 2026-05-07 15:00 | 3.21455 | 101.93833 | 15787 ft | 350 kts | 42° |
| 2026-05-07 15:00 | 3.23327 | 101.95416 | 16280 ft | 354 kts | 42° |
| 2026-05-07 15:00 | 3.25216 | 101.97014 | 16785 ft | 357 kts | 42° |
| 2026-05-07 15:01 | 3.27145 | 101.98646 | 17285 ft | 360 kts | 42° |
| 2026-05-07 15:01 | 3.29040 | 102.00249 | 17778 ft | 363 kts | 42° |
| 2026-05-07 15:01 | 3.30973 | 102.01885 | 18223 ft | 365 kts | 42° |
| 2026-05-07 15:01 | 3.32920 | 102.03532 | 18603 ft | 368 kts | 42° |
| 2026-05-07 15:02 | 3.34915 | 102.05157 | 18961 ft | 372 kts | 38° |
| 2026-05-07 15:02 | 3.37061 | 102.06625 | 19311 ft | 376 kts | 34° |
| 2026-05-07 15:02 | 3.39310 | 102.07995 | 19652 ft | 380 kts | 32° |
| 2026-05-07 15:02 | 3.41605 | 102.09309 | 20027 ft | 382 kts | 31° |
| 2026-05-07 15:03 | 3.43941 | 102.10600 | 20398 ft | 384 kts | 30° |
| 2026-05-07 15:03 | 3.46318 | 102.11834 | 20775 ft | 387 kts | 29° |
| 2026-05-07 15:03 | 3.47913 | 102.12637 | 21024 ft | 388 kts | 28° |
| 2026-05-07 15:03 | 3.50343 | 102.13848 | 21399 ft | 391 kts | 28° |
| 2026-05-07 15:04 | 3.53607 | 102.15479 | 21905 ft | 394 kts | 28° |
| 2026-05-07 15:04 | 3.56066 | 102.16718 | 22285 ft | 396 kts | 29° |
| 2026-05-07 15:04 | 3.57698 | 102.17546 | 22531 ft | 398 kts | 29° |
| 2026-05-07 15:04 | 3.61007 | 102.19233 | 23011 ft | 401 kts | 29° |
| 2026-05-07 15:05 | 3.62660 | 102.20078 | 23254 ft | 403 kts | 29° |
| 2026-05-07 15:05 | 3.65162 | 102.21360 | 23586 ft | 405 kts | 29° |
| 2026-05-07 15:05 | 3.67676 | 102.22649 | 23891 ft | 408 kts | 29° |
| 2026-05-07 15:05 | 3.70209 | 102.23947 | 24198 ft | 410 kts | 29° |
| 2026-05-07 15:06 | 3.72752 | 102.25250 | 24517 ft | 412 kts | 29° |
| 2026-05-07 15:06 | 3.75311 | 102.26561 | 24830 ft | 414 kts | 29° |
| 2026-05-07 15:06 | 3.77881 | 102.27878 | 25161 ft | 417 kts | 29° |
| 2026-05-07 15:06 | 3.80469 | 102.29204 | 25504 ft | 419 kts | 29° |
| 2026-05-07 15:07 | 3.83070 | 102.30536 | 25851 ft | 421 kts | 29° |
| 2026-05-07 15:07 | 3.85682 | 102.31874 | 26166 ft | 423 kts | 29° |
| 2026-05-07 15:07 | 3.88308 | 102.33219 | 26508 ft | 425 kts | 29° |
| 2026-05-07 15:07 | 3.90953 | 102.34574 | 26786 ft | 427 kts | 29° |
| 2026-05-07 15:08 | 3.93600 | 102.35931 | 26859 ft | 428 kts | 29° |
| 2026-05-07 15:08 | 3.96254 | 102.37291 | 26867 ft | 429 kts | 29° |
| 2026-05-07 15:08 | 3.98912 | 102.38652 | 26868 ft | 429 kts | 29° |
| 2026-05-07 15:08 | 4.01574 | 102.40016 | 26868 ft | 429 kts | 29° |
| 2026-05-07 15:09 | 4.04232 | 102.41379 | 26865 ft | 429 kts | 29° |
| 2026-05-07 15:09 | 4.06892 | 102.42742 | 26867 ft | 430 kts | 29° |
| 2026-05-07 15:09 | 4.09555 | 102.44107 | 26868 ft | 430 kts | 29° |
| 2026-05-07 15:09 | 4.12218 | 102.45472 | 26866 ft | 430 kts | 29° |
| 2026-05-07 15:10 | 4.14880 | 102.46837 | 26867 ft | 430 kts | 29° |
| 2026-05-07 15:10 | 4.17524 | 102.48192 | 26600 ft | 425 kts | 29° |
| 2026-05-07 15:10 | 4.20135 | 102.49530 | 26334 ft | 417 kts | 29° |
| 2026-05-07 15:10 | 4.22685 | 102.50835 | 26146 ft | 406 kts | 29° |
| 2026-05-07 15:11 | 4.25169 | 102.52108 | 25942 ft | 397 kts | 29° |
| 2026-05-07 15:11 | 4.27609 | 102.53358 | 25623 ft | 392 kts | 29° |
| 2026-05-07 15:11 | 4.30022 | 102.54597 | 25261 ft | 388 kts | 29° |
| 2026-05-07 15:11 | 4.32414 | 102.55825 | 24877 ft | 385 kts | 29° |
| 2026-05-07 15:12 | 4.34790 | 102.57045 | 24490 ft | 382 kts | 29° |
| 2026-05-07 15:12 | 4.37147 | 102.58255 | 24092 ft | 380 kts | 29° |
| 2026-05-07 15:12 | 4.39463 | 102.59444 | 23713 ft | 378 kts | 29° |
| 2026-05-07 15:12 | 4.41826 | 102.60657 | 23302 ft | 375 kts | 29° |
| 2026-05-07 15:13 | 4.44110 | 102.61830 | 22854 ft | 372 kts | 29° |
| 2026-05-07 15:13 | 4.46437 | 102.63024 | 22418 ft | 370 kts | 29° |
| 2026-05-07 15:13 | 4.48693 | 102.64182 | 21975 ft | 368 kts | 29° |
| 2026-05-07 15:13 | 4.50990 | 102.65361 | 21537 ft | 365 kts | 29° |
| 2026-05-07 15:14 | 4.53241 | 102.66516 | 21112 ft | 362 kts | 29° |
| 2026-05-07 15:14 | 4.55475 | 102.67664 | 20696 ft | 360 kts | 29° |
| 2026-05-07 15:14 | 4.57664 | 102.68787 | 20294 ft | 357 kts | 29° |
| 2026-05-07 15:14 | 4.59864 | 102.69913 | 19882 ft | 354 kts | 29° |
| 2026-05-07 15:15 | 4.62064 | 102.71012 | 19485 ft | 352 kts | 28° |
| 2026-05-07 15:15 | 4.64250 | 102.72095 | 19088 ft | 349 kts | 28° |
| 2026-05-07 15:15 | 4.66423 | 102.73169 | 18703 ft | 347 kts | 28° |
| 2026-05-07 15:15 | 4.68580 | 102.74236 | 18312 ft | 345 kts | 28° |
| 2026-05-07 15:16 | 4.70724 | 102.75297 | 17887 ft | 342 kts | 28° |
| 2026-05-07 15:16 | 4.72852 | 102.76350 | 17443 ft | 340 kts | 28° |
| 2026-05-07 15:16 | 4.74969 | 102.77398 | 17017 ft | 338 kts | 28° |
| 2026-05-07 15:16 | 4.77076 | 102.78441 | 16565 ft | 336 kts | 28° |
| 2026-05-07 15:17 | 4.79166 | 102.79476 | 16134 ft | 334 kts | 28° |
| 2026-05-07 15:17 | 4.81244 | 102.80506 | 15697 ft | 332 kts | 28° |
| 2026-05-07 15:17 | 4.83308 | 102.81528 | 15283 ft | 330 kts | 28° |
| 2026-05-07 15:17 | 4.85358 | 102.82543 | 14908 ft | 326 kts | 28° |
| 2026-05-07 15:18 | 4.87442 | 102.83383 | 14632 ft | 321 kts | 20° |
| 2026-05-07 15:18 | 4.89615 | 102.83995 | 13953 ft | 329 kts | 17° |
| 2026-05-07 15:18 | 4.91867 | 102.84565 | 13267 ft | 336 kts | 16° |
| 2026-05-07 15:18 | 4.94115 | 102.85124 | 12822 ft | 332 kts | 16° |
| 2026-05-07 15:19 | 4.96390 | 102.85693 | 11956 ft | 342 kts | 16° |
| 2026-05-07 15:19 | 4.98735 | 102.86285 | 11034 ft | 353 kts | 16° |
| 2026-05-07 15:19 | 5.01150 | 102.86897 | 10061 ft | 363 kts | 15° |
| 2026-05-07 15:19 | 5.03632 | 102.87527 | 8974 ft | 373 kts | 15° |
| 2026-05-07 15:20 | 5.06175 | 102.88171 | 7874 ft | 381 kts | 15° |
| 2026-05-07 15:20 | 5.08766 | 102.88768 | 6988 ft | 382 kts | 12° |
| 2026-05-07 15:20 | 5.11367 | 102.89283 | 6200 ft | 379 kts | 11° |
| 2026-05-07 15:20 | 5.13942 | 102.89777 | 5501 ft | 373 kts | 11° |
| 2026-05-07 15:21 | 5.16451 | 102.90259 | 5009 ft | 361 kts | 12° |
| 2026-05-07 15:21 | 5.18703 | 102.91126 | 4652 ft | 336 kts | 34° |
| 2026-05-07 15:21 | 5.20424 | 102.92599 | 4290 ft | 315 kts | 45° |
| 2026-05-07 15:21 | 5.21907 | 102.94125 | 3955 ft | 297 kts | 47° |
| 2026-05-07 15:22 | 5.23311 | 102.95576 | 3621 ft | 283 kts | 46° |
| 2026-05-07 15:22 | 5.24683 | 102.96931 | 3276 ft | 269 kts | 45° |
| 2026-05-07 15:22 | 5.25971 | 102.98189 | 2936 ft | 247 kts | 45° |
| 2026-05-07 15:22 | 5.27142 | 102.99345 | 2663 ft | 225 kts | 46° |
| 2026-05-07 15:23 | 5.28220 | 103.00411 | 2368 ft | 210 kts | 46° |
| 2026-05-07 15:23 | 5.29224 | 103.01402 | 2098 ft | 195 kts | 46° |
| 2026-05-07 15:23 | 5.30161 | 103.02327 | 1871 ft | 180 kts | 46° |
| 2026-05-07 15:23 | 5.31013 | 103.03167 | 1649 ft | 164 kts | 46° |
| 2026-05-07 15:24 | 5.31792 | 103.03936 | 1424 ft | 150 kts | 46° |
| 2026-05-07 15:24 | 5.32505 | 103.04640 | 1250 ft | 139 kts | 46° |
| 2026-05-07 15:24 | 5.33188 | 103.05315 | 1078 ft | 137 kts | 46° |
| 2026-05-07 15:24 | 5.33860 | 103.05979 | 921 ft | 137 kts | 45° |
| 2026-05-07 15:25 | 5.34550 | 103.06659 | 747 ft | 137 kts | 45° |
| 2026-05-07 15:25 | 5.35221 | 103.07321 | 575 ft | 137 kts | 44° |
| 2026-05-07 15:25 | 5.35899 | 103.07992 | 391 ft | 137 kts | 45° |
| 2026-05-07 15:25 | 5.36575 | 103.08663 | 151 ft | 136 kts | 44° |
| 2026-05-07 15:26 | 5.37240 | 103.09327 | 32 ft | 132 kts | 45° |
| 2026-05-07 15:26 | 5.37733 | 103.09810 | 31 ft | 58 kts | 43° |
| 2026-05-07 15:26 | 5.37970 | 103.10042 | 32 ft | 45 kts | 45° |
| 2026-05-07 15:26 | 5.38073 | 103.10184 | 32 ft | 14 kts | 97° |
| 2026-05-07 15:27 | 5.38069 | 103.10209 | 30 ft | 0 kts | 99° |
| 2026-05-07 15:27 | 5.38068 | 103.10210 | 30 ft | 0 kts | 104° |
| 2026-05-07 15:27 | 5.38067 | 103.10212 | 31 ft | 1 kts | 116° |
| 2026-05-07 15:27 | 5.38061 | 103.10219 | 31 ft | 2 kts | 135° |
| 2026-05-07 15:28 | 5.38047 | 103.10232 | 31 ft | 4 kts | 136° |
| 2026-05-07 15:28 | 5.38024 | 103.10254 | 30 ft | 5 kts | 136° |
| 2026-05-07 15:28 | 5.37994 | 103.10284 | 29 ft | 7 kts | 135° |
| 2026-05-07 15:28 | 5.37976 | 103.10313 | 28 ft | 3 kts | 103° |
| 2026-05-07 15:29 | 5.37970 | 103.10324 | 28 ft | 1 kts | 121° |
| 2026-05-07 15:29 | 5.37965 | 103.10331 | 28 ft | 1 kts | 129° |
| 2026-05-07 15:29 | 5.37958 | 103.10339 | 28 ft | 2 kts | 130° |
| 2026-05-07 15:29 | 5.37944 | 103.10354 | 28 ft | 4 kts | 133° |
| 2026-05-07 15:30 | 5.37924 | 103.10376 | 28 ft | 5 kts | 132° |
| 2026-05-07 15:30 | 5.37904 | 103.10396 | 28 ft | 0 kts | 134° |
| 2026-05-07 15:30 | 5.37902 | 103.10398 | 29 ft | 1 kts | 134° |
| 2026-05-07 15:30 | 5.37900 | 103.10400 | 28 ft | 0 kts | 134° |